Time;durP1;ratioP1;P1;durP2;ratioP2;P2;SDS_P1;SDS_P2;PMS_P1;PMS_P2;Temp;Humidity;BMP_temperature;BMP_pressure;BME280_temperature;BME280_humidity;BME280_pressure;Samples;Min_cycle;Max_cycle;Signal;HPM_P1;HPM_P2
2023/03/14 00:01:55;;;;;;;22.08;5.68;;;;;;;;;;5032999;28;20132;-64
2023/03/14 00:04:21;;;;;;;18.52;6.70;;;;;;;;;;5028582;28;20052;-64
2023/03/14 00:06:47;;;;;;;16.45;6.43;;;;;;;;;;5028160;28;20043;-64
2023/03/14 00:09:14;;;;;;;14.05;5.15;;;;;;;;;;5022524;28;20128;-64
2023/03/14 00:11:40;;;;;;;16.70;5.93;;;;;;;;;;5040838;28;20135;-64
2023/03/14 00:14:06;;;;;;;14.23;5.80;;;;;;;;;;5013215;28;20055;-64
2023/03/14 00:16:32;;;;;;;20.88;5.55;;;;;;;;;;5045816;28;20037;-64
2023/03/14 00:18:59;;;;;;;16.42;5.82;;;;;;;;;;5042953;28;20041;-64
2023/03/14 00:21:25;;;;;;;21.38;6.32;;;;;;;;;;5047894;28;20099;-64
2023/03/14 00:23:52;;;;;;;16.95;5.65;;;;;;;;;;5035877;28;20515;-65
2023/03/14 00:26:19;;;;;;;19.70;5.95;;;;;;;;;;5040949;28;20107;-64
2023/03/14 00:28:45;;;;;;;18.30;6.50;;;;;;;;;;5041504;28;20102;-64
2023/03/14 00:31:13;;;;;;;25.85;5.63;;;;;;;;;;5019335;28;20108;-64
2023/03/14 00:33:39;;;;;;;17.10;5.68;;;;;;;;;;5040986;28;20463;-64
2023/03/14 00:36:08;;;;;;;16.42;6.13;;;;;;;;;;5045455;28;20074;-64
2023/03/14 00:38:35;;;;;;;12.93;6.50;;;;;;;;;;5042722;28;20041;-64
2023/03/14 00:41:08;;;;;;;20.90;6.13;;;;;;;;;;5044543;28;20082;-64
2023/03/14 00:43:35;;;;;;;18.05;5.47;;;;;;;;;;5041964;28;20049;-64
2023/03/14 00:46:01;;;;;;;21.25;6.25;;;;;;;;;;5031075;28;20025;-64
2023/03/14 00:48:28;;;;;;;22.25;5.43;;;;;;;;;;5047614;28;20040;-64
2023/03/14 00:50:54;;;;;;;24.92;7.05;;;;;;;;;;5040664;28;20118;-64
2023/03/14 00:53:20;;;;;;;20.85;5.65;;;;;;;;;;5045343;28;20045;-65
2023/03/14 00:55:46;;;;;;;15.60;5.10;;;;;;;;;;5018305;28;20038;-64
2023/03/14 00:58:13;;;;;;;21.35;5.45;;;;;;;;;;5047116;28;20292;-64
2023/03/14 01:00:40;;;;;;;17.20;5.32;;;;;;;;;;5034520;28;20045;-64
2023/03/14 01:03:06;;;;;;;12.93;5.50;;;;;;;;;;5051342;28;20044;-64
2023/03/14 01:05:32;;;;;;;15.35;5.63;;;;;;;;;;5029751;28;20415;-64
2023/03/14 01:07:58;;;;;;;19.13;5.50;;;;;;;;;;5048093;28;20067;-64
2023/03/14 01:10:25;;;;;;;11.52;4.72;;;;;;;;;;5013184;28;20268;-64
2023/03/14 01:12:51;;;;;;;17.25;4.95;;;;;;;;;;5044653;28;20525;-64
2023/03/14 01:15:17;;;;;;;19.58;5.55;;;;;;;;;;5048185;28;20040;-64
2023/03/14 01:17:43;;;;;;;13.95;4.40;;;;;;;;;;5045131;28;20048;-64
2023/03/14 01:20:11;;;;;;;19.27;5.10;;;;;;;;;;5004787;28;20403;-63
2023/03/14 01:22:39;;;;;;;14.43;5.60;;;;;;;;;;5044472;28;20438;-64
2023/03/14 01:25:09;;;;;;;14.73;4.47;;;;;;;;;;5028087;28;20040;-64
2023/03/14 01:27:35;;;;;;;16.85;5.38;;;;;;;;;;5050657;28;20491;-64
2023/03/14 01:30:02;;;;;;;22.13;5.93;;;;;;;;;;5045854;28;20056;-64
2023/03/14 01:32:28;;;;;;;12.40;5.03;;;;;;;;;;5046650;28;20124;-64
2023/03/14 01:34:54;;;;;;;17.20;5.63;;;;;;;;;;5028705;28;20077;-64
2023/03/14 01:37:20;;;;;;;11.52;4.53;;;;;;;;;;5046854;28;20044;-64
2023/03/14 01:39:47;;;;;;;11.32;4.40;;;;;;;;;;5040524;28;20181;-64
2023/03/14 01:42:14;;;;;;;13.05;4.25;;;;;;;;;;5053891;28;20044;-64
2023/03/14 01:44:50;;;;;;;12.48;4.35;;;;;;;;;;5017636;28;20137;-64
2023/03/14 01:47:16;;;;;;;15.32;4.80;;;;;;;;;;5050585;28;20036;-64
2023/03/14 01:49:42;;;;;;;15.32;4.72;;;;;;;;;;5035934;28;20032;-64
2023/03/14 01:52:08;;;;;;;18.10;5.25;;;;;;;;;;5037670;28;20029;-65
2023/03/14 01:54:39;;;;;;;14.27;4.57;;;;;;;;;;5043816;28;20055;-64
2023/03/14 01:57:09;;;;;;;17.38;5.32;;;;;;;;;;5045369;28;20029;-64
2023/03/14 01:59:35;;;;;;;13.00;4.70;;;;;;;;;;5046464;28;20087;-64
2023/03/14 02:02:02;;;;;;;14.15;5.18;;;;;;;;;;5045856;28;20043;-64
2023/03/14 02:04:30;;;;;;;11.90;4.43;;;;;;;;;;5045325;28;20048;-64
2023/03/14 02:07:23;;;;;;;11.02;3.97;;;;;;;;;;5047165;28;20041;-64
2023/03/14 02:09:49;;;;;;;12.48;3.72;;;;;;;;;;5002229;28;20561;-65
2023/03/14 02:12:16;;;;;;;12.13;4.03;;;;;;;;;;5046886;28;20357;-64
2023/03/14 02:14:47;;;;;;;17.67;4.95;;;;;;;;;;5054395;28;20037;-64
2023/03/14 02:17:14;;;;;;;23.55;4.82;;;;;;;;;;5046159;28;20078;-64
2023/03/14 02:19:43;;;;;;;6.65;3.47;;;;;;;;;;5035094;28;20045;-64
2023/03/14 02:22:11;;;;;;;12.90;4.63;;;;;;;;;;5040389;28;20059;-64
2023/03/14 02:24:57;;;;;;;13.55;5.18;;;;;;;;;;5040538;28;20052;-64
2023/03/14 02:27:23;;;;;;;9.68;3.70;;;;;;;;;;5016050;28;20124;-64
2023/03/14 02:29:52;;;;;;;11.82;4.18;;;;;;;;;;5043746;28;20076;-64
2023/03/14 02:32:19;;;;;;;17.30;3.65;;;;;;;;;;5023601;28;20119;-64
2023/03/14 02:34:48;;;;;;;14.18;4.15;;;;;;;;;;5028871;28;20056;-64
2023/03/14 02:37:15;;;;;;;11.95;3.95;;;;;;;;;;5051687;28;20598;-64
2023/03/14 02:39:44;;;;;;;20.33;5.13;;;;;;;;;;5052100;28;20044;-64
2023/03/14 02:42:10;;;;;;;12.63;4.60;;;;;;;;;;5049329;28;20182;-64
2023/03/14 02:44:36;;;;;;;17.98;5.03;;;;;;;;;;5014962;28;20497;-65
2023/03/14 02:47:04;;;;;;;14.95;4.32;;;;;;;;;;5050593;28;20033;-64
2023/03/14 02:49:32;;;;;;;18.15;4.72;;;;;;;;;;5049596;28;20058;-64
2023/03/14 02:51:58;;;;;;;23.92;5.07;;;;;;;;;;5060042;28;20045;-64
2023/03/14 02:54:24;;;;;;;15.23;4.50;;;;;;;;;;5051538;28;20041;-64
2023/03/14 02:56:50;;;;;;;12.68;4.53;;;;;;;;;;5031047;28;20044;-64
2023/03/14 02:59:16;;;;;;;15.45;5.40;;;;;;;;;;5037245;28;20049;-64
2023/03/14 03:01:43;;;;;;;16.88;5.25;;;;;;;;;;5050153;28;20403;-64
2023/03/14 03:04:09;;;;;;;14.13;4.53;;;;;;;;;;5049083;28;20056;-64
2023/03/14 03:06:35;;;;;;;16.58;5.32;;;;;;;;;;5050298;28;20037;-64
2023/03/14 03:09:01;;;;;;;14.43;5.85;;;;;;;;;;5033383;28;20055;-64
2023/03/14 03:11:27;;;;;;;15.90;5.03;;;;;;;;;;5031870;28;20064;-65
2023/03/14 03:13:53;;;;;;;25.75;5.80;;;;;;;;;;5047901;28;20045;-64
2023/03/14 03:16:19;;;;;;;16.33;6.47;;;;;;;;;;5040153;28;20109;-64
2023/03/14 03:18:46;;;;;;;26.08;7.70;;;;;;;;;;5033994;28;20052;-64
2023/03/14 03:21:12;;;;;;;19.50;6.43;;;;;;;;;;5049921;28;20040;-64
2023/03/14 03:23:38;;;;;;;24.77;6.75;;;;;;;;;;5021594;28;20045;-64
2023/03/14 03:26:04;;;;;;;16.05;6.15;;;;;;;;;;5014647;28;20173;-65
2023/03/14 03:28:30;;;;;;;20.52;6.20;;;;;;;;;;5047401;28;20490;-64
2023/03/14 03:30:56;;;;;;;22.20;7.35;;;;;;;;;;5049428;28;20375;-64
2023/03/14 03:33:24;;;;;;;25.17;8.13;;;;;;;;;;5036870;28;20094;-64
2023/03/14 03:35:50;;;;;;;23.92;6.72;;;;;;;;;;5036898;28;20120;-64
2023/03/14 03:38:16;;;;;;;19.23;7.10;;;;;;;;;;5027376;28;20045;-64
2023/03/14 03:40:43;;;;;;;23.83;6.65;;;;;;;;;;5043205;28;20049;-64
2023/03/14 03:43:09;;;;;;;21.52;7.13;;;;;;;;;;5050789;28;20095;-64
2023/03/14 03:45:35;;;;;;;15.52;5.45;;;;;;;;;;5056172;28;20049;-64
2023/03/14 03:48:01;;;;;;;24.10;6.55;;;;;;;;;;5047405;28;20052;-64
2023/03/14 03:50:27;;;;;;;21.10;7.28;;;;;;;;;;5049496;28;20450;-65
2023/03/14 03:52:54;;;;;;;20.00;6.97;;;;;;;;;;5039152;28;20431;-64
2023/03/14 03:55:20;;;;;;;21.38;9.60;;;;;;;;;;5014442;28;20056;-64
2023/03/14 03:57:46;;;;;;;19.63;7.72;;;;;;;;;;5014384;28;20367;-64
2023/03/14 04:00:12;;;;;;;23.30;7.53;;;;;;;;;;5051939;28;20127;-64
2023/03/14 04:02:38;;;;;;;21.65;8.70;;;;;;;;;;5047722;28;20442;-65
2023/03/14 04:05:05;;;;;;;24.15;8.10;;;;;;;;;;5048495;28;20120;-65
2023/03/14 04:07:32;;;;;;;26.15;8.00;;;;;;;;;;5027635;28;20054;-64
2023/03/14 04:09:58;;;;;;;18.92;6.85;;;;;;;;;;5019583;28;20088;-64
2023/03/14 04:12:24;;;;;;;24.75;7.95;;;;;;;;;;5024237;28;20033;-65
2023/03/14 04:14:51;;;;;;;16.45;6.50;;;;;;;;;;5014027;28;20036;-64
2023/03/14 04:17:17;;;;;;;20.98;6.22;;;;;;;;;;5021332;28;20044;-64
2023/03/14 04:19:43;;;;;;;20.38;7.28;;;;;;;;;;4997688;28;20052;-64
2023/03/14 04:22:09;;;;;;;25.65;7.75;;;;;;;;;;4998250;28;20468;-64
2023/03/14 04:24:36;;;;;;;19.90;6.95;;;;;;;;;;5028774;28;20053;-64
2023/03/14 04:27:02;;;;;;;24.35;6.97;;;;;;;;;;4976388;28;20033;-64
2023/03/14 04:29:28;;;;;;;18.17;5.82;;;;;;;;;;5013480;28;20468;-65
2023/03/14 04:31:54;;;;;;;22.70;6.45;;;;;;;;;;5027196;28;20033;-64
2023/03/14 04:34:20;;;;;;;22.52;6.30;;;;;;;;;;5010750;28;20071;-65
2023/03/14 04:36:46;;;;;;;16.83;6.57;;;;;;;;;;5020616;28;20042;-65
2023/03/14 04:39:12;;;;;;;18.40;6.53;;;;;;;;;;4999728;28;20050;-65
2023/03/14 04:41:38;;;;;;;31.08;8.63;;;;;;;;;;5024022;28;20137;-65
2023/03/14 04:44:04;;;;;;;21.83;6.50;;;;;;;;;;5000496;28;20049;-64
2023/03/14 04:46:31;;;;;;;15.80;6.53;;;;;;;;;;5013259;28;20041;-64
2023/03/14 04:48:57;;;;;;;25.60;6.15;;;;;;;;;;5029969;28;20120;-65
2023/03/14 04:51:27;;;;;;;18.17;7.32;;;;;;;;;;5030723;28;20038;-64
2023/03/14 04:53:53;;;;;;;17.25;6.60;;;;;;;;;;5023151;28;20053;-64
2023/03/14 04:56:20;;;;;;;11.68;6.82;;;;;;;;;;5012452;28;20056;-65
2023/03/14 04:58:46;;;;;;;16.63;7.40;;;;;;;;;;5019053;28;20049;-64
2023/03/14 05:01:12;;;;;;;27.05;7.00;;;;;;;;;;5027813;28;20103;-64
2023/03/14 05:03:38;;;;;;;16.88;7.00;;;;;;;;;;5025452;28;20495;-64
2023/03/14 05:06:04;;;;;;;16.25;7.05;;;;;;;;;;5027437;28;20037;-64
2023/03/14 05:08:31;;;;;;;17.02;6.15;;;;;;;;;;5036585;28;20045;-64
2023/03/14 05:10:57;;;;;;;21.90;6.85;;;;;;;;;;5045919;28;20045;-64
2023/03/14 05:13:24;;;;;;;19.00;7.65;;;;;;;;;;5047171;28;20124;-64
2023/03/14 05:15:50;;;;;;;11.27;5.65;;;;;;;;;;5046412;28;20498;-64
2023/03/14 05:18:17;;;;;;;11.82;5.55;;;;;;;;;;5044595;28;20069;-64
2023/03/14 05:20:43;;;;;;;12.35;4.80;;;;;;;;;;5038194;28;20529;-65
2023/03/14 05:23:09;;;;;;;12.95;5.65;;;;;;;;;;5040901;28;20037;-65
2023/03/14 05:25:35;;;;;;;12.90;6.10;;;;;;;;;;5040248;28;20490;-64
2023/03/14 05:28:02;;;;;;;9.85;5.07;;;;;;;;;;5046327;28;20041;-64
2023/03/14 05:30:28;;;;;;;9.93;4.75;;;;;;;;;;5022848;28;20518;-64
2023/03/14 05:32:54;;;;;;;11.30;5.75;;;;;;;;;;5020985;28;20029;-64
2023/03/14 05:35:20;;;;;;;12.07;5.90;;;;;;;;;;5038088;28;20510;-64
2023/03/14 05:37:47;;;;;;;10.38;5.30;;;;;;;;;;5040605;28;20447;-64
2023/03/14 05:40:13;;;;;;;12.40;5.45;;;;;;;;;;5043267;28;20225;-64
2023/03/14 05:42:39;;;;;;;5.45;4.13;;;;;;;;;;5044570;28;20037;-64
2023/03/14 05:45:05;;;;;;;10.10;4.88;;;;;;;;;;5019825;28;20071;-64
2023/03/14 05:47:32;;;;;;;12.05;6.05;;;;;;;;;;5012859;28;20041;-64
2023/03/14 05:49:58;;;;;;;9.98;5.13;;;;;;;;;;5021081;28;20423;-64
2023/03/14 05:52:24;;;;;;;11.60;5.45;;;;;;;;;;5044509;28;20041;-64
2023/03/14 05:54:50;;;;;;;14.82;5.38;;;;;;;;;;5032907;28;20053;-64
2023/03/14 05:57:16;;;;;;;3.97;1.42;;;;;;;;;;5027036;28;20060;-63
2023/03/14 05:59:42;;;;;;;4.80;1.75;;;;;;;;;;5036185;28;20095;-64
2023/03/14 06:02:08;;;;;;;4.20;2.13;;;;;;;;;;5044054;28;20052;-64
2023/03/14 06:04:35;;;;;;;5.78;2.20;;;;;;;;;;5042365;28;20037;-64
2023/03/14 06:07:01;;;;;;;8.20;2.75;;;;;;;;;;5040081;28;20538;-64
2023/03/14 06:09:27;;;;;;;11.30;2.75;;;;;;;;;;5046213;28;20047;-64
2023/03/14 06:11:53;;;;;;;10.68;3.03;;;;;;;;;;5044148;28;20033;-63
2023/03/14 06:14:19;;;;;;;13.30;3.97;;;;;;;;;;5029981;28;20632;-64
2023/03/14 06:16:47;;;;;;;12.32;3.35;;;;;;;;;;5030064;28;20033;-64
2023/03/14 06:19:14;;;;;;;10.40;3.70;;;;;;;;;;5027440;28;20124;-63
2023/03/14 06:21:40;;;;;;;9.65;3.20;;;;;;;;;;5041218;28;20098;-64
2023/03/14 06:24:06;;;;;;;15.25;4.07;;;;;;;;;;5047496;28;20049;-64
2023/03/14 06:26:33;;;;;;;18.25;3.78;;;;;;;;;;5045783;28;20052;-64
2023/03/14 06:29:03;;;;;;;15.80;2.70;;;9.90;99.90;;;;;;5005934;28;20044;-64
2023/03/14 06:31:30;;;;;;;16.95;4.45;;;;;;;;;;5045261;28;20041;-64
2023/03/14 06:33:56;;;;;;;10.10;2.45;;;;;;;;;;5029531;28;20549;-64
2023/03/14 06:36:22;;;;;;;6.38;2.30;;;;;;;;;;5032200;28;20060;-64
2023/03/14 06:38:49;;;;;;;10.02;3.05;;;;;;;;;;5037409;28;20167;-64
2023/03/14 06:41:15;;;;;;;5.95;2.58;;;;;;;;;;5021287;28;20098;-64
2023/03/14 06:43:41;;;;;;;6.55;1.83;;;;;;;;;;5031141;28;20073;-64
2023/03/14 06:46:07;;;;;;;3.63;1.50;;;;;;;;;;5055971;28;20044;-64
2023/03/14 06:48:33;;;;;;;10.23;1.70;;;;;;;;;;5019086;28;20044;-63
2023/03/14 06:50:59;;;;;;;9.18;1.70;;;;;;;;;;5050821;28;20476;-64
2023/03/14 06:53:25;;;;;;;5.82;1.38;;;;;;;;;;5050288;28;20513;-64
2023/03/14 06:55:52;;;;;;;6.20;1.50;;;;;;;;;;5048256;28;20049;-64
2023/03/14 06:58:18;;;;;;;7.07;1.20;;;;;;;;;;5048531;28;20087;-64
2023/03/14 07:00:44;;;;;;;4.22;1.67;;;;;;;;;;5000679;28;20041;-63
2023/03/14 07:03:11;;;;;;;3.35;1.42;;;;;;;;;;5028707;28;20047;-63
2023/03/14 07:05:40;;;;;;;2.92;1.27;;;;;;;;;;5050004;28;20602;-63
2023/03/14 07:08:06;;;;;;;5.30;1.20;;;;;;;;;;5028823;28;20488;-64
2023/03/14 07:10:33;;;;;;;4.85;1.55;;;;;;;;;;5047798;28;20143;-64
2023/03/14 07:12:59;;;;;;;5.63;1.30;;;;;;;;;;5047615;28;20135;-63
2023/03/14 07:15:25;;;;;;;4.30;1.30;;;;;;;;;;5050064;28;20407;-64
2023/03/14 07:17:52;;;;;;;6.70;1.75;;;;;;;;;;5040762;28;20029;-64
2023/03/14 07:20:18;;;;;;;7.07;1.45;;;;;;;;;;5050450;28;20041;-63
2023/03/14 07:22:44;;;;;;;4.43;1.30;;;;;;;;;;5039404;28;20053;-64
2023/03/14 07:25:11;;;;;;;7.05;1.67;;;;;;;;;;5043493;28;20080;-63
2023/03/14 07:27:38;;;;;;;5.25;1.48;;;;;;;;;;5053029;28;20029;-64
2023/03/14 07:30:04;;;;;;;6.57;1.73;;;;;;;;;;5051453;28;20175;-63
2023/03/14 07:32:30;;;;;;;3.60;1.80;;;;;;;;;;5047935;28;20041;-63
2023/03/14 07:34:57;;;;;;;4.78;1.20;;;;;;;;;;5026276;28;20391;-66
2023/03/14 07:37:23;;;;;;;4.85;1.75;;;;;;;;;;5029980;28;20111;-63
2023/03/14 07:39:49;;;;;;;2.88;1.23;;;;;;;;;;5046453;28;20175;-63
2023/03/14 07:42:15;;;;;;;3.63;1.30;;;;;;;;;;5046929;28;20041;-63
2023/03/14 07:44:41;;;;;;;4.60;2.08;;;;;;;;;;5029643;28;20102;-63
2023/03/14 07:47:07;;;;;;;6.78;1.92;;;;;;;;;;5049684;28;20040;-63
2023/03/14 07:49:34;;;;;;;5.03;1.27;;;;;;;;;;5030506;28;20032;-64
2023/03/14 07:52:00;;;;;;;5.50;1.88;;;;;;;;;;5050335;28;20499;-63
2023/03/14 07:54:26;;;;;;;9.32;2.00;;;;;;;;;;5029088;28;20041;-64
2023/03/14 07:56:52;;;;;;;6.63;1.90;;;;;;;;;;5027408;28;20052;-63
2023/03/14 07:59:19;;;;;;;5.22;1.60;;;;;;;;;;5037047;28;20037;-63
2023/03/14 08:01:45;;;;;;;6.55;1.92;;;;;;;;;;5014018;28;20045;-63
2023/03/14 08:04:11;;;;;;;8.65;1.85;;;;;;;;;;5031018;28;20046;-64
2023/03/14 08:06:37;;;;;;;12.07;1.98;;;;;;;;;;5026554;28;20507;-63
2023/03/14 08:09:04;;;;;;;4.18;1.73;;;;;;;;;;5044320;28;20052;-63
2023/03/14 08:11:30;;;;;;;6.85;1.85;;;;;;;;;;5032037;28;20468;-63
2023/03/14 08:13:56;;;;;;;6.97;1.85;;;;;;;;;;5027885;28;20045;-64
2023/03/14 08:16:23;;;;;;;11.13;2.50;;;;;;;;;;5046182;28;20044;-63
2023/03/14 08:18:49;;;;;;;7.00;2.72;;;;;;;;;;5046898;28;20088;-63
2023/03/14 08:21:15;;;;;;;5.97;2.92;;;;;;;;;;5047759;28;20119;-63
2023/03/14 08:23:41;;;;;;;8.95;3.20;;;;;;;;;;5047533;28;20143;-63
2023/03/14 08:26:07;;;;;;;12.85;3.38;;;;;;;;;;5047495;28;20398;-63
2023/03/14 08:28:34;;;;;;;10.43;2.78;;;;;;;;;;5028074;28;20036;-64
2023/03/14 08:31:00;;;;;;;12.75;3.00;;;;;;;;;;5022910;28;20033;-64
2023/03/14 08:33:28;;;;;;;8.38;3.55;;;;;;;;;;5028850;28;20075;-63
2023/03/14 08:35:55;;;;;;;15.20;3.13;;;;;;;;;;5030180;28;20047;-64
2023/03/14 08:38:21;;;;;;;12.55;3.88;;;;;;;;;;5029350;28;20045;-63
2023/03/14 08:40:47;;;;;;;12.15;4.03;;;;;;;;;;5046779;28;20045;-63
2023/03/14 08:43:13;;;;;;;13.30;3.10;;;;;;;;;;5029289;28;20049;-63
2023/03/14 08:45:40;;;;;;;11.70;3.55;;;;;;;;;;5048002;28;20084;-63
2023/03/14 08:48:06;;;;;;;21.65;4.50;;;;;;;;;;5047198;28;20476;-63
2023/03/14 08:50:32;;;;;;;10.38;4.10;;;;;;;;;;5045395;28;20045;-64
2023/03/14 08:52:59;;;;;;;20.83;3.88;;;;;;;;;;5047069;28;20103;-64
2023/03/14 08:55:27;;;;;;;15.68;4.90;;;;;;;;;;5046945;28;20052;-64
2023/03/14 08:57:53;;;;;;;12.05;4.32;;;;;;;;;;5043559;28;20107;-63
2023/03/14 09:00:20;;;;;;;15.60;5.15;;;;;;;;;;5047539;28;20383;-64
2023/03/14 09:02:46;;;;;;;20.20;3.78;;;;;;;;;;5016025;28;20048;-64
2023/03/14 09:05:13;;;;;;;10.63;4.53;;;;;;;;;;5047037;28;20470;-64
2023/03/14 09:07:39;;;;;;;13.43;5.00;;;;;;;;;;5046253;28;20053;-63
2023/03/14 09:10:06;;;;;;;13.90;4.57;;;;;;;;;;5046606;28;20063;-63
2023/03/14 09:12:33;;;;;;;15.50;5.05;;;;;;;;;;5025101;28;20040;-63
2023/03/14 09:14:59;;;;;;;13.73;4.05;;;;;;;;;;5028902;28;20107;-63
2023/03/14 09:17:25;;;;;;;16.05;4.32;;;;;;;;;;5026188;28;20134;-63
2023/03/14 09:19:51;;;;;;;21.00;4.10;;;;;;;;;;5044298;28;20036;-64
2023/03/14 09:22:17;;;;;;;12.90;4.85;;;;;;;;;;5037017;28;20060;-64
2023/03/14 09:24:44;;;;;;;16.25;4.22;;;;;;;;;;5043044;28;20041;-64
2023/03/14 09:27:10;;;;;;;12.68;4.97;;;;;;;;;;5047096;28;20029;-63
2023/03/14 09:29:36;;;;;;;22.77;4.28;;;;;;;;;;5026086;28;20107;-63
2023/03/14 09:32:03;;;;;;;19.35;5.65;;;;;;;;;;5040822;28;20055;-63
2023/03/14 09:34:29;;;;;;;13.82;4.38;;;;;;;;;;5038175;28;20270;-63
2023/03/14 09:36:55;;;;;;;14.60;4.75;;;;;;;;;;5045122;28;20041;-64
2023/03/14 09:39:21;;;;;;;15.75;4.70;;;;;;;;;;5042584;28;20077;-63
2023/03/14 09:41:49;;;;;;;16.70;4.32;;;;;;;;;;5039880;28;20055;-63
2023/03/14 09:44:27;;;;;;;10.93;3.97;;;;;;;;;;5045704;28;20033;-64
2023/03/14 09:46:54;;;;;;;17.15;4.90;;;;;;;;;;5049620;28;20136;-63
2023/03/14 09:49:22;;;;;;;15.13;4.43;;;;;;;;;;5051902;28;20029;-63
2023/03/14 09:51:50;;;;;;;16.35;5.05;;;;;;;;;;5037738;28;20183;-64
2023/03/14 09:54:39;;;;;;;17.30;4.65;;;;;;;;;;5042239;28;20553;-64
2023/03/14 09:57:06;;;;;;;13.57;3.95;;;;;;;;;;5015761;28;20131;-63
2023/03/14 09:59:34;;;;;;;13.88;4.10;;;;;;;;;;5050724;28;20040;-64
2023/03/14 10:02:13;;;;;;;32.08;4.40;;;;;;;;;;5051262;28;20498;-63
2023/03/14 10:04:43;;;;;;;12.75;4.05;;;;;;;;;;5047091;28;20466;-63
2023/03/14 10:07:19;;;;;;;12.43;3.72;;;;;;;;;;5046090;28;20080;-63
2023/03/14 10:09:49;;;;;;;9.70;3.38;;;;;;;;;;5025182;28;20056;-64
2023/03/14 10:12:16;;;;;;;7.90;3.17;;;;;;;;;;5038117;28;20495;-63
2023/03/14 10:14:50;;;;;;;16.63;3.28;;;;;;;;;;5050038;28;20124;-63
2023/03/14 10:17:16;;;;;;;14.45;3.85;;;;;;;;;;5039213;28;20044;-63
2023/03/14 10:19:56;;;;;;;8.70;3.05;;;;;;;;;;5018130;28;20216;-63
2023/03/14 10:22:25;;;;;;;16.13;3.17;;;;;;;;;;5061279;28;20469;-64
2023/03/14 10:24:56;;;;;;;8.20;2.92;;;;;;;;;;5016144;28;20041;-64
2023/03/14 10:27:33;;;;;;;10.38;2.90;;;;;;;;;;5037451;28;20093;-64
2023/03/14 10:30:01;;;;;;;9.90;2.83;;;;;;;;;;5048849;28;20091;-64
2023/03/14 10:32:37;;;;;;;6.72;3.47;;;;;;;;;;5032733;28;20044;-63
2023/03/14 10:35:15;;;;;;;8.07;3.28;;;;;;;;;;5042365;28;20045;-63
2023/03/14 10:38:07;;;;;;;15.85;3.35;;;;;;;;;;5042204;28;20029;-63
2023/03/14 10:40:38;;;;;;;12.15;2.33;;;;;;;;;;5036400;28;20053;-63
2023/03/14 10:43:05;;;;;;;10.07;3.00;;;;;;;;;;5032268;28;20041;-63
2023/03/14 10:45:39;;;;;;;6.75;2.63;;;;;;;;;;5046837;28;20111;-64
2023/03/14 10:48:14;;;;;;;11.70;3.63;;;;;;;;;;5043392;28;20033;-64
2023/03/14 10:51:01;;;;;;;10.57;2.90;;;;;;;;;;5049788;28;20211;-64
2023/03/14 10:53:27;;;;;;;8.80;2.85;;;;;;;;;;5014920;28;20115;-63
2023/03/14 10:55:53;;;;;;;11.65;3.08;;;;;;;;;;5049709;28;20045;-63
2023/03/14 10:58:24;;;;;;;5.50;1.67;;;;;;;;;;5048319;28;20049;-64
2023/03/14 11:01:00;;;;;;;12.43;3.20;;;;;;;;;;5045447;28;20073;-63
2023/03/14 11:03:28;;;;;;;8.63;2.15;;;;;;;;;;5021586;28;20572;-63
2023/03/14 11:05:57;;;;;;;11.38;2.97;;;;;;;;;;5047677;28;20037;-63
2023/03/14 11:08:32;;;;;;;6.15;2.33;;;;;;;;;;5047160;28;20056;-64
2023/03/14 11:11:06;;;;;;;4.45;1.90;;;;;;;;;;5047801;28;20051;-63
2023/03/14 11:13:47;;;;;;;6.68;2.10;;;;;;;;;;5045581;28;20474;-63
2023/03/14 11:16:13;;;;;;;4.22;1.95;;;;;;;;;;5021650;28;20044;-63
2023/03/14 11:19:04;;;;;;;6.20;2.20;;;;;;;;;;5030961;28;20044;-64
2023/03/14 11:21:38;;;;;;;5.80;1.80;;;;;;;;;;5015242;28;20041;-63
2023/03/14 11:24:23;;;;;;;5.38;1.60;;;;;;;;;;5035911;28;20108;-63
2023/03/14 11:26:52;;;;;;;7.55;2.50;;;;;;;;;;5035514;28;20605;-63
2023/03/14 11:29:28;;;;;;;7.43;1.70;;;;;;;;;;5029783;28;20479;-63
2023/03/14 11:32:02;;;;;;;5.35;1.92;;;;;;;;;;5042147;28;20044;-63
2023/03/14 11:34:32;;;;;;;9.57;1.90;;;;;;;;;;5034693;28;20045;-63
2023/03/14 11:37:04;;;;;;;8.75;1.58;;;;;;;;;;5037027;28;20041;-64
2023/03/14 11:39:37;;;;;;;10.02;2.28;;;;;;;;;;5045728;28;20478;-64
2023/03/14 11:42:03;;;;;;;9.13;1.73;;;;;;;;;;5024733;28;20068;-64
2023/03/14 11:44:35;;;;;;;6.47;2.20;;;;;;;;;;5045937;28;20049;-63
2023/03/14 11:47:11;;;;;;;9.80;1.85;;;;;;;;;;5021116;28;20041;-63
2023/03/14 11:49:44;;;;;;;8.77;2.30;;;;;;;;;;5029748;28;20048;-64
2023/03/14 11:52:13;;;;;;;12.15;2.97;;;;;;;;;;5036468;28;20038;-64
2023/03/14 11:54:46;;;;;;;11.13;2.65;;;;;;;;;;5042781;28;20534;-64
2023/03/14 11:57:22;;;;;;;8.07;2.42;;;;;;;;;;5047120;28;20103;-64
2023/03/14 12:00:10;;;;;;;8.70;2.72;;;;;;;;;;5038778;28;20037;-63
2023/03/14 12:02:42;;;;;;;7.20;2.72;;;;;;;;;;5029449;28;20144;-64
2023/03/14 12:05:17;;;;;;;8.20;2.50;;;;;;;;;;5037361;28;20037;-64
2023/03/14 12:07:59;;;;;;;9.70;2.47;;;;;;;;;;5015541;28;20034;-63
2023/03/14 12:10:25;;;;;;;7.70;2.60;;;;;;;;;;5029187;28;20171;-64
2023/03/14 12:12:52;;;;;;;5.20;1.95;;;;;;;;;;5031504;28;20561;-64
2023/03/14 12:15:21;;;;;;;4.45;1.80;;;;;;;;;;5042084;28;20077;-64
2023/03/14 12:17:54;;;;;;;10.23;2.40;;;;;;;;;;5044058;28;20487;-64
2023/03/14 12:20:22;;;;;;;15.07;3.63;;;;;;;;;;5035527;28;20041;-64
2023/03/14 12:22:50;;;;;;;9.93;2.55;;;;;;;;;;5043808;28;20462;-63
2023/03/14 12:25:27;;;;;;;6.13;2.35;;;;;;;;;;5032879;28;20121;-64
2023/03/14 12:27:57;;;;;;;8.38;1.98;;;;;;;;;;5043413;28;20048;-63
2023/03/14 12:30:39;;;;;;;4.22;1.77;;;;;;;;;;5030732;28;20037;-64
2023/03/14 12:33:17;;;;;;;7.30;2.15;;;;;;;;;;5041255;28;20037;-64
2023/03/14 12:35:49;;;;;;;8.05;2.13;;;;;;;;;;5030003;28;20392;-64
2023/03/14 12:38:27;;;;;;;10.35;2.67;;;;;;;;;;5037268;28;20041;-64
2023/03/14 12:40:53;;;;;;;4.75;1.90;;;;;;;;;;5021765;28;20052;-64
2023/03/14 12:43:30;;;;;;;5.75;1.95;;;;;;;;;;5046465;28;20469;-64
2023/03/14 12:46:19;;;;;;;7.28;2.08;;;;;;;;;;5023581;28;20041;-63
2023/03/14 12:48:46;;;;;;;15.35;2.80;;;;;;;;;;5016679;28;20111;-64
2023/03/14 12:51:14;;;;;;;9.15;2.45;;;;;;;;;;5047916;28;20048;-63
2023/03/14 12:53:46;;;;;;;8.88;2.42;;;;;;;;;;5041699;28;20033;-64
2023/03/14 12:56:31;;;;;;;10.00;2.83;;;;;;;;;;5048748;28;20040;-63
2023/03/14 12:58:57;;;;;;;8.45;2.45;;;;;;;;;;5047207;28;20124;-63
2023/03/14 13:01:23;;;;;;;8.57;2.88;;;;;;;;;;5044168;28;20123;-64
2023/03/14 13:03:49;;;;;;;5.35;2.53;;;;;;;;;;5029639;28;20047;-64
2023/03/14 13:06:35;;;;;;;6.63;2.17;;;;;;;;;;5056528;28;20040;-64
2023/03/14 13:09:21;;;;;;;7.68;1.80;;;;;;;;;;5044873;28;20049;-64
2023/03/14 13:11:47;;;;;;;7.00;2.20;;;;;;;;;;5003396;28;20407;-63
2023/03/14 13:14:14;;;;;;;7.80;2.25;;;;;;;;;;5019367;28;20344;-63
2023/03/14 13:16:40;;;;;;;4.90;2.13;;;;;;;;;;4984030;28;20095;-63
2023/03/14 13:19:27;;;;;;;7.78;1.95;;;;;;;;;;5024206;28;20121;-63
2023/03/14 13:22:04;;;;;;;8.75;2.10;;;;;;;;;;5026977;28;20077;-63
2023/03/14 13:24:33;;;;;;;9.68;1.92;;;;;;;;;;5023933;28;20052;-64
2023/03/14 13:27:00;;;;;;;5.80;2.42;;;;;;;;;;5028691;28;20039;-64
2023/03/14 13:29:27;;;;;;;10.80;2.55;;;;;;;;;;5024473;28;20217;-64
2023/03/14 13:31:57;;;;;;;6.13;2.20;;;;;;;;;;5021914;28;20037;-64
2023/03/14 13:34:25;;;;;;;8.32;1.92;;;;;;;;;;5033615;28;20038;-64
2023/03/14 13:36:54;;;;;;;8.88;2.38;;;;;;;;;;5025116;28;20032;-64
2023/03/14 13:39:25;;;;;;;7.93;2.42;;;;;;;;;;5012687;28;20477;-64
2023/03/14 13:41:55;;;;;;;11.10;2.97;;;;;;;;;;5016939;28;20038;-64
2023/03/14 13:44:50;;;;;;;10.82;2.50;;;;;;;;;;5016869;28;20073;-64
2023/03/14 13:47:18;;;;;;;7.82;2.13;;;;;;;;;;4999118;28;20045;-63
2023/03/14 13:49:45;;;;;;;4.75;2.17;;;;;;;;;;5023306;28;20045;-64
2023/03/14 13:52:24;;;;;;;8.32;2.42;;;;;;;;;;5018075;28;20041;-63
2023/03/14 13:54:54;;;;;;;9.32;2.70;;;;;;;;;;5016554;28;20129;-64
2023/03/14 13:57:20;;;;;;;6.38;1.98;;;;;;;;;;5032141;28;20208;-64
2023/03/14 13:59:58;;;;;;;7.30;2.42;;;;;;;;;;5022811;28;20034;-64
2023/03/14 14:02:26;;;;;;;5.70;2.30;;;;;;;;;;4999504;28;20124;-64
2023/03/14 14:04:52;;;;;;;5.80;2.13;;;;;;;;;;5018134;28;20554;-64
2023/03/14 14:07:18;;;;;;;8.68;2.38;;;;;;;;;;5024221;28;20112;-64
2023/03/14 14:09:54;;;;;;;4.32;1.58;;;;;;;;;;5013419;28;20059;-64
2023/03/14 14:12:30;;;;;;;6.25;1.85;;;;;;;;;;5034799;28;20056;-64
2023/03/14 14:14:58;;;;;;;4.72;1.75;;;;;;;;;;5046985;28;20082;-64
2023/03/14 14:17:26;;;;;;;6.07;1.70;;;;;;;;;;5047725;28;20041;-64
2023/03/14 14:19:53;;;;;;;12.90;1.95;;;;;;;;;;5027491;28;20045;-64
2023/03/14 14:22:20;;;;;;;7.68;1.92;;;;;;;;;;5034700;28;20068;-64
2023/03/14 14:24:47;;;;;;;4.65;1.60;;;;;;;;;;5028018;28;20049;-64
2023/03/14 14:27:24;;;;;;;2.65;1.70;;;;;;;;;;5049582;28;20095;-63
2023/03/14 14:30:01;;;;;;;6.20;1.77;;;;;;;;;;5022652;28;20103;-64
2023/03/14 14:32:34;;;;;;;10.75;2.38;;;;;;;;;;5044252;28;20036;-64
2023/03/14 14:35:00;;;;;;;;;;;;;;;;;;5045988;28;20079;-64
2023/03/14 14:37:28;;;;;;;6.78;2.00;;;;;;;;;;5031228;28;20343;-64
2023/03/14 14:39:59;;;;;;;11.02;2.88;;;;;;;;;;5052943;28;20052;-63
2023/03/14 14:42:26;;;;;;;6.70;2.25;;;;;;;;;;5022994;28;20041;-63
2023/03/14 14:44:53;;;;;;;8.60;2.42;;;;;;;;;;5026642;28;20560;-63